sensor_id;sensor_type;location;lat;lon;timestamp;pressure;altitude;pressure_sealevel;temperature;humidity
65784;BME280;52532;53.358;-1.488;2022-10-04T00:02:25;100750.96;;;17.91;56.53
65784;BME280;52532;53.358;-1.488;2022-10-04T00:05:31;100736.73;;;17.15;57.59
65784;BME280;52532;53.358;-1.488;2022-10-04T00:08:40;100724.31;;;16.35;62.73
65784;BME280;52532;53.358;-1.488;2022-10-04T00:11:46;100717.18;;;14.70;65.89
65784;BME280;52532;53.358;-1.488;2022-10-04T00:14:51;100710.79;;;14.97;66.34
65784;BME280;52532;53.358;-1.488;2022-10-04T00:18:01;100704.19;;;15.70;63.91
65784;BME280;52532;53.358;-1.488;2022-10-04T00:21:07;100701.69;;;16.38;63.85
65784;BME280;52532;53.358;-1.488;2022-10-04T00:24:20;100714.41;;;14.83;68.02
65784;BME280;52532;53.358;-1.488;2022-10-04T00:27:25;100722.19;;;15.96;65.68
65784;BME280;52532;53.358;-1.488;2022-10-04T00:30:36;100719.80;;;15.03;66.02
65784;BME280;52532;53.358;-1.488;2022-10-04T00:33:41;100718.73;;;14.43;69.73
65784;BME280;52532;53.358;-1.488;2022-10-04T00:36:51;100707.62;;;15.52;66.56
65784;BME280;52532;53.358;-1.488;2022-10-04T00:39:59;100697.88;;;14.68;69.62
65784;BME280;52532;53.358;-1.488;2022-10-04T00:43:07;100693.53;;;14.42;72.30
65784;BME280;52532;53.358;-1.488;2022-10-04T00:46:16;100693.45;;;14.51;70.03
65784;BME280;52532;53.358;-1.488;2022-10-04T00:49:23;100689.15;;;15.96;66.33
65784;BME280;52532;53.358;-1.488;2022-10-04T00:52:30;100684.64;;;15.23;67.01
65784;BME280;52532;53.358;-1.488;2022-10-04T00:55:38;100672.90;;;14.88;69.29
65784;BME280;52532;53.358;-1.488;2022-10-04T00:58:59;100663.73;;;15.16;69.16
65784;BME280;52532;53.358;-1.488;2022-10-04T01:02:11;100658.56;;;15.29;69.16
65784;BME280;52532;53.358;-1.488;2022-10-04T01:05:18;100661.81;;;15.26;70.58
65784;BME280;52532;53.358;-1.488;2022-10-04T01:08:26;100662.93;;;15.36;68.51
65784;BME280;52532;53.358;-1.488;2022-10-04T01:11:35;100659.38;;;15.93;68.30
65784;BME280;52532;53.358;-1.488;2022-10-04T01:14:48;100649.16;;;15.12;73.12
65784;BME280;52532;53.358;-1.488;2022-10-04T01:18:12;100640.59;;;15.79;69.83
65784;BME280;52532;53.358;-1.488;2022-10-04T01:21:26;100629.02;;;14.58;74.22
65784;BME280;52532;53.358;-1.488;2022-10-04T01:24:33;100616.98;;;14.52;73.90
65784;BME280;52532;53.358;-1.488;2022-10-04T01:27:40;100611.26;;;14.61;76.10
65784;BME280;52532;53.358;-1.488;2022-10-04T01:30:44;100608.40;;;13.99;74.88
65784;BME280;52532;53.358;-1.488;2022-10-04T01:33:47;100604.19;;;15.94;72.59
65784;BME280;52532;53.358;-1.488;2022-10-04T01:36:52;100598.46;;;13.18;81.37
65784;BME280;52532;53.358;-1.488;2022-10-04T01:39:55;100579.57;;;14.50;77.33
65784;BME280;52532;53.358;-1.488;2022-10-04T01:43:01;100572.22;;;15.02;73.38
65784;BME280;52532;53.358;-1.488;2022-10-04T01:46:09;100570.26;;;14.59;74.52
65784;BME280;52532;53.358;-1.488;2022-10-04T01:49:18;100572.55;;;15.22;72.67
65784;BME280;52532;53.358;-1.488;2022-10-04T01:52:25;100571.68;;;15.20;71.08
65784;BME280;52532;53.358;-1.488;2022-10-04T01:55:33;100568.17;;;16.59;67.57
65784;BME280;52532;53.358;-1.488;2022-10-04T01:58:41;100564.86;;;15.17;71.98
65784;BME280;52532;53.358;-1.488;2022-10-04T02:01:48;100564.18;;;15.83;70.35
65784;BME280;52532;53.358;-1.488;2022-10-04T02:04:55;100572.29;;;15.28;71.50
65784;BME280;52532;53.358;-1.488;2022-10-04T02:08:03;100562.77;;;16.87;66.86
65784;BME280;52532;53.358;-1.488;2022-10-04T02:11:07;100561.85;;;16.31;68.29
65784;BME280;52532;53.358;-1.488;2022-10-04T02:14:13;100549.44;;;15.67;68.56
65784;BME280;52532;53.358;-1.488;2022-10-04T02:17:19;100548.00;;;16.17;68.49
65784;BME280;52532;53.358;-1.488;2022-10-04T02:20:25;100542.40;;;16.03;69.94
65784;BME280;52532;53.358;-1.488;2022-10-04T02:23:28;100538.56;;;15.91;70.05
65784;BME280;52532;53.358;-1.488;2022-10-04T02:26:32;100534.09;;;15.51;71.59
65784;BME280;52532;53.358;-1.488;2022-10-04T02:29:34;100533.37;;;15.63;69.67
65784;BME280;52532;53.358;-1.488;2022-10-04T02:32:38;100524.93;;;17.39;66.84
65784;BME280;52532;53.358;-1.488;2022-10-04T02:36:16;100509.96;;;16.77;66.92
65784;BME280;52532;53.358;-1.488;2022-10-04T02:39:22;100511.32;;;17.14;66.45
65784;BME280;52532;53.358;-1.488;2022-10-04T02:42:36;100514.02;;;16.92;66.70
65784;BME280;52532;53.358;-1.488;2022-10-04T02:45:45;100502.02;;;16.31;68.43
65784;BME280;52532;53.358;-1.488;2022-10-04T02:48:52;100496.73;;;17.04;65.15
65784;BME280;52532;53.358;-1.488;2022-10-04T02:52:02;100494.69;;;18.36;60.62
65784;BME280;52532;53.358;-1.488;2022-10-04T02:55:12;100491.35;;;19.09;58.98
65784;BME280;52532;53.358;-1.488;2022-10-04T02:58:22;100489.06;;;17.59;61.58
65784;BME280;52532;53.358;-1.488;2022-10-04T03:01:27;100485.76;;;18.98;58.33
65784;BME280;52532;53.358;-1.488;2022-10-04T03:04:39;100487.24;;;17.01;63.91
65784;BME280;52532;53.358;-1.488;2022-10-04T03:07:42;100479.30;;;18.33;60.80
65784;BME280;52532;53.358;-1.488;2022-10-04T03:10:45;100470.58;;;17.07;64.75
65784;BME280;52532;53.358;-1.488;2022-10-04T03:13:51;100461.45;;;16.46;66.90
65784;BME280;52532;53.358;-1.488;2022-10-04T03:16:58;100458.86;;;16.59;68.28
65784;BME280;52532;53.358;-1.488;2022-10-04T03:20:03;100459.70;;;17.18;66.42
65784;BME280;52532;53.358;-1.488;2022-10-04T03:23:08;100449.35;;;16.89;66.24
65784;BME280;52532;53.358;-1.488;2022-10-04T03:26:20;100457.92;;;15.29;69.66
65784;BME280;52532;53.358;-1.488;2022-10-04T03:29:28;100464.71;;;17.44;64.13
65784;BME280;52532;53.358;-1.488;2022-10-04T03:32:33;100461.63;;;17.47;62.86
65784;BME280;52532;53.358;-1.488;2022-10-04T03:35:38;100456.30;;;17.64;63.97
65784;BME280;52532;53.358;-1.488;2022-10-04T03:38:42;100456.70;;;17.86;64.10
65784;BME280;52532;53.358;-1.488;2022-10-04T03:41:46;100448.56;;;17.74;62.49
65784;BME280;52532;53.358;-1.488;2022-10-04T03:44:51;100452.38;;;15.11;71.31
65784;BME280;52532;53.358;-1.488;2022-10-04T03:47:59;100451.45;;;15.92;69.53
65784;BME280;52532;53.358;-1.488;2022-10-04T03:51:12;100444.63;;;16.71;65.18
65784;BME280;52532;53.358;-1.488;2022-10-04T03:54:19;100444.49;;;16.46;66.35
65784;BME280;52532;53.358;-1.488;2022-10-04T03:57:25;100438.12;;;18.07;61.22
65784;BME280;52532;53.358;-1.488;2022-10-04T04:00:28;100447.21;;;15.11;69.05
65784;BME280;52532;53.358;-1.488;2022-10-04T04:03:37;100436.56;;;17.07;63.17
65784;BME280;52532;53.358;-1.488;2022-10-04T04:06:50;100435.18;;;17.45;62.44
65784;BME280;52532;53.358;-1.488;2022-10-04T04:10:00;100435.23;;;18.17;60.45
65784;BME280;52532;53.358;-1.488;2022-10-04T04:13:14;100445.40;;;15.69;66.92
65784;BME280;52532;53.358;-1.488;2022-10-04T04:16:22;100430.97;;;17.11;64.97
65784;BME280;52532;53.358;-1.488;2022-10-04T04:19:27;100430.20;;;16.01;66.83
65784;BME280;52532;53.358;-1.488;2022-10-04T04:22:31;100422.18;;;16.27;66.63
65784;BME280;52532;53.358;-1.488;2022-10-04T04:25:36;100420.25;;;16.21;64.80
65784;BME280;52532;53.358;-1.488;2022-10-04T04:28:43;100429.07;;;15.89;65.89
65784;BME280;52532;53.358;-1.488;2022-10-04T04:31:51;100424.02;;;15.77;66.72
65784;BME280;52532;53.358;-1.488;2022-10-04T04:34:57;100422.34;;;16.04;66.54
65784;BME280;52532;53.358;-1.488;2022-10-04T04:38:12;100401.00;;;17.41;63.25
65784;BME280;52532;53.358;-1.488;2022-10-04T04:41:15;100398.87;;;17.70;62.63
65784;BME280;52532;53.358;-1.488;2022-10-04T04:44:26;100397.92;;;16.42;63.25
65784;BME280;52532;53.358;-1.488;2022-10-04T04:47:31;100399.70;;;17.47;62.81
65784;BME280;52532;53.358;-1.488;2022-10-04T04:50:36;100392.61;;;17.33;63.16
65784;BME280;52532;53.358;-1.488;2022-10-04T04:53:42;100393.37;;;16.62;64.59
65784;BME280;52532;53.358;-1.488;2022-10-04T04:56:47;100389.33;;;14.07;72.72
65784;BME280;52532;53.358;-1.488;2022-10-04T04:59:55;100387.97;;;16.59;65.90
65784;BME280;52532;53.358;-1.488;2022-10-04T05:03:01;100378.21;;;17.06;64.98
65784;BME280;52532;53.358;-1.488;2022-10-04T05:06:20;100382.43;;;16.16;68.72
65784;BME280;52532;53.358;-1.488;2022-10-04T05:09:28;100374.26;;;16.26;65.32
65784;BME280;52532;53.358;-1.488;2022-10-04T05:12:32;100368.95;;;15.12;68.00
65784;BME280;52532;53.358;-1.488;2022-10-04T05:15:37;100371.58;;;16.00;67.43
65784;BME280;52532;53.358;-1.488;2022-10-04T05:18:41;100364.68;;;16.99;64.08
65784;BME280;52532;53.358;-1.488;2022-10-04T05:21:44;100358.43;;;15.60;66.04
65784;BME280;52532;53.358;-1.488;2022-10-04T05:24:51;100363.77;;;16.19;66.01
65784;BME280;52532;53.358;-1.488;2022-10-04T05:27:55;100377.02;;;15.79;66.96
65784;BME280;52532;53.358;-1.488;2022-10-04T05:31:08;100370.11;;;16.76;65.45
65784;BME280;52532;53.358;-1.488;2022-10-04T05:34:21;100376.28;;;16.24;67.04
65784;BME280;52532;53.358;-1.488;2022-10-04T05:37:34;100375.20;;;15.01;68.10
65784;BME280;52532;53.358;-1.488;2022-10-04T05:40:48;100366.04;;;17.05;65.74
65784;BME280;52532;53.358;-1.488;2022-10-04T05:43:56;100360.92;;;16.06;66.23
65784;BME280;52532;53.358;-1.488;2022-10-04T05:46:59;100357.04;;;16.02;66.78
65784;BME280;52532;53.358;-1.488;2022-10-04T05:50:03;100344.75;;;14.50;71.27
65784;BME280;52532;53.358;-1.488;2022-10-04T05:53:19;100337.90;;;15.51;69.65
65784;BME280;52532;53.358;-1.488;2022-10-04T05:56:55;100333.77;;;16.36;65.61
65784;BME280;52532;53.358;-1.488;2022-10-04T06:00:13;100331.45;;;16.98;64.78
65784;BME280;52532;53.358;-1.488;2022-10-04T06:03:29;100325.30;;;16.44;66.05
65784;BME280;52532;53.358;-1.488;2022-10-04T06:06:39;100338.03;;;15.48;68.33
65784;BME280;52532;53.358;-1.488;2022-10-04T06:09:58;100323.29;;;15.93;67.10
65784;BME280;52532;53.358;-1.488;2022-10-04T06:13:13;100330.74;;;15.46;69.99
65784;BME280;52532;53.358;-1.488;2022-10-04T06:16:25;100320.36;;;15.78;68.04
65784;BME280;52532;53.358;-1.488;2022-10-04T06:19:50;100308.29;;;16.51;65.50
65784;BME280;52532;53.358;-1.488;2022-10-04T06:22:59;100306.84;;;17.09;64.21
65784;BME280;52532;53.358;-1.488;2022-10-04T06:26:06;100309.76;;;14.24;70.80
65784;BME280;52532;53.358;-1.488;2022-10-04T06:29:13;100296.76;;;16.58;66.82
65784;BME280;52532;53.358;-1.488;2022-10-04T06:32:31;100286.71;;;16.47;65.85
65784;BME280;52532;53.358;-1.488;2022-10-04T06:36:02;100289.50;;;15.50;67.38
65784;BME280;52532;53.358;-1.488;2022-10-04T06:43:37;100299.19;;;16.35;66.49
65784;BME280;52532;53.358;-1.488;2022-10-04T06:46:46;100286.90;;;15.94;66.93
65784;BME280;52532;53.358;-1.488;2022-10-04T06:49:55;100277.05;;;16.95;65.63
65784;BME280;52532;53.358;-1.488;2022-10-04T06:53:09;100276.56;;;15.29;70.75
65784;BME280;52532;53.358;-1.488;2022-10-04T06:56:29;100268.91;;;17.48;65.07
65784;BME280;52532;53.358;-1.488;2022-10-04T06:59:45;100261.63;;;16.50;67.20
65784;BME280;52532;53.358;-1.488;2022-10-04T07:02:58;100266.94;;;16.12;66.86
65784;BME280;52532;53.358;-1.488;2022-10-04T07:06:04;100266.99;;;16.87;66.34
65784;BME280;52532;53.358;-1.488;2022-10-04T07:09:18;100282.23;;;14.79;70.54
65784;BME280;52532;53.358;-1.488;2022-10-04T07:12:23;100273.54;;;16.88;64.65
65784;BME280;52532;53.358;-1.488;2022-10-04T07:15:29;100279.36;;;17.70;63.62
65784;BME280;52532;53.358;-1.488;2022-10-04T07:18:38;100270.40;;;16.41;66.51
65784;BME280;52532;53.358;-1.488;2022-10-04T07:21:51;100270.34;;;17.13;65.02
65784;BME280;52532;53.358;-1.488;2022-10-04T07:25:04;100258.60;;;16.93;66.06
65784;BME280;52532;53.358;-1.488;2022-10-04T07:28:13;100244.39;;;15.75;69.80
65784;BME280;52532;53.358;-1.488;2022-10-04T07:32:25;100254.78;;;15.54;70.17
65784;BME280;52532;53.358;-1.488;2022-10-04T07:35:33;100245.51;;;15.17;73.19
65784;BME280;52532;53.358;-1.488;2022-10-04T07:38:46;100247.24;;;16.65;68.87
65784;BME280;52532;53.358;-1.488;2022-10-04T07:41:59;100248.42;;;14.42;75.35
65784;BME280;52532;53.358;-1.488;2022-10-04T07:45:12;100236.95;;;15.43;73.19
65784;BME280;52532;53.358;-1.488;2022-10-04T07:48:20;100217.39;;;16.42;68.92
65784;BME280;52532;53.358;-1.488;2022-10-04T07:51:31;100221.32;;;15.93;69.10
65784;BME280;52532;53.358;-1.488;2022-10-04T07:54:41;100226.86;;;15.94;70.66
65784;BME280;52532;53.358;-1.488;2022-10-04T07:57:53;100235.66;;;15.81;71.75
65784;BME280;52532;53.358;-1.488;2022-10-04T08:01:05;100242.82;;;15.50;71.50
65784;BME280;52532;53.358;-1.488;2022-10-04T08:04:20;100231.55;;;14.18;75.64
65784;BME280;52532;53.358;-1.488;2022-10-04T08:07:39;100233.61;;;15.80;72.52
65784;BME280;52532;53.358;-1.488;2022-10-04T08:10:51;100238.04;;;16.32;70.39
65784;BME280;52532;53.358;-1.488;2022-10-04T08:14:07;100224.99;;;15.85;70.40
65784;BME280;52532;53.358;-1.488;2022-10-04T08:17:23;100239.83;;;16.43;69.98
65784;BME280;52532;53.358;-1.488;2022-10-04T08:20:37;100239.03;;;15.45;74.74
65784;BME280;52532;53.358;-1.488;2022-10-04T08:23:58;100242.31;;;15.69;72.44
65784;BME280;52532;53.358;-1.488;2022-10-04T08:27:27;100239.42;;;16.75;67.29
65784;BME280;52532;53.358;-1.488;2022-10-04T08:30:49;100240.33;;;16.73;68.44
65784;BME280;52532;53.358;-1.488;2022-10-04T08:34:08;100227.78;;;16.98;68.70
65784;BME280;52532;53.358;-1.488;2022-10-04T08:37:24;100224.23;;;16.53;70.09
65784;BME280;52532;53.358;-1.488;2022-10-04T08:40:47;100220.44;;;16.64;69.48
65784;BME280;52532;53.358;-1.488;2022-10-04T08:44:16;100200.96;;;16.59;66.94
65784;BME280;52532;53.358;-1.488;2022-10-04T08:47:41;100206.92;;;16.36;68.75
65784;BME280;52532;53.358;-1.488;2022-10-04T08:51:17;100192.01;;;16.82;68.80
65784;BME280;52532;53.358;-1.488;2022-10-04T08:55:05;100200.18;;;15.57;70.96
65784;BME280;52532;53.358;-1.488;2022-10-04T09:10:20;100177.89;;;17.24;65.86
65784;BME280;52532;53.358;-1.488;2022-10-04T09:13:38;100189.69;;;17.17;65.62
65784;BME280;52532;53.358;-1.488;2022-10-04T09:16:45;100190.02;;;16.15;68.97
65784;BME280;52532;53.358;-1.488;2022-10-04T09:19:54;100186.77;;;16.91;69.45
65784;BME280;52532;53.358;-1.488;2022-10-04T09:23:11;100191.85;;;15.50;70.42
65784;BME280;52532;53.358;-1.488;2022-10-04T09:26:29;100193.51;;;16.27;68.88
65784;BME280;52532;53.358;-1.488;2022-10-04T09:29:54;100197.75;;;16.27;67.94
65784;BME280;52532;53.358;-1.488;2022-10-04T09:33:17;100191.38;;;17.35;67.95
65784;BME280;52532;53.358;-1.488;2022-10-04T09:36:37;100192.61;;;16.18;70.64
65784;BME280;52532;53.358;-1.488;2022-10-04T09:39:58;100198.55;;;16.24;72.85
65784;BME280;52532;53.358;-1.488;2022-10-04T09:48:25;100204.72;;;16.30;70.33
65784;BME280;52532;53.358;-1.488;2022-10-04T09:51:52;100220.75;;;15.25;71.68
65784;BME280;52532;53.358;-1.488;2022-10-04T09:55:12;100207.58;;;17.45;67.13
65784;BME280;52532;53.358;-1.488;2022-10-04T10:03:59;100174.68;;;18.46;64.34
65784;BME280;52532;53.358;-1.488;2022-10-04T10:07:22;100179.24;;;17.16;64.90
65784;BME280;52532;53.358;-1.488;2022-10-04T10:10:37;100176.74;;;17.86;63.76
65784;BME280;52532;53.358;-1.488;2022-10-04T10:16:00;100185.10;;;16.24;67.86
65784;BME280;52532;53.358;-1.488;2022-10-04T10:19:44;100202.16;;;16.14;69.78
65784;BME280;52532;53.358;-1.488;2022-10-04T10:23:11;100195.50;;;16.48;70.28
65784;BME280;52532;53.358;-1.488;2022-10-04T10:26:35;100191.32;;;16.93;68.95
65784;BME280;52532;53.358;-1.488;2022-10-04T10:29:58;100188.10;;;16.36;70.15
65784;BME280;52532;53.358;-1.488;2022-10-04T10:33:20;100175.62;;;16.07;70.28
65784;BME280;52532;53.358;-1.488;2022-10-04T10:36:38;100179.69;;;17.21;66.80
65784;BME280;52532;53.358;-1.488;2022-10-04T10:39:59;100188.34;;;17.29;67.21
65784;BME280;52532;53.358;-1.488;2022-10-04T10:43:24;100184.02;;;16.49;69.11
65784;BME280;52532;53.358;-1.488;2022-10-04T10:46:43;100200.90;;;15.84;73.47
65784;BME280;52532;53.358;-1.488;2022-10-04T10:49:59;100211.41;;;16.82;68.44
65784;BME280;52532;53.358;-1.488;2022-10-04T10:53:15;100200.89;;;15.90;73.19
65784;BME280;52532;53.358;-1.488;2022-10-04T10:56:33;100191.83;;;16.49;69.43
65784;BME280;52532;53.358;-1.488;2022-10-04T11:00:00;100193.36;;;17.16;67.43
65784;BME280;52532;53.358;-1.488;2022-10-04T11:08:44;100202.53;;;16.98;68.96
65784;BME280;52532;53.358;-1.488;2022-10-04T11:12:10;100187.76;;;18.00;65.64
65784;BME280;52532;53.358;-1.488;2022-10-04T11:16:09;100190.44;;;17.91;64.31
65784;BME280;52532;53.358;-1.488;2022-10-04T11:20:20;100190.12;;;17.67;66.38
65784;BME280;52532;53.358;-1.488;2022-10-04T11:24:05;100192.92;;;17.76;65.52
65784;BME280;52532;53.358;-1.488;2022-10-04T11:27:28;100181.28;;;18.27;63.68
65784;BME280;52532;53.358;-1.488;2022-10-04T11:31:00;100179.82;;;18.11;63.30
65784;BME280;52532;53.358;-1.488;2022-10-04T11:35:37;100180.21;;;17.58;64.38
65784;BME280;52532;53.358;-1.488;2022-10-04T11:38:55;100178.34;;;16.51;68.23
65784;BME280;52532;53.358;-1.488;2022-10-04T11:42:15;100169.00;;;17.07;66.13
65784;BME280;52532;53.358;-1.488;2022-10-04T11:45:30;100173.25;;;17.97;65.26
65784;BME280;52532;53.358;-1.488;2022-10-04T11:48:42;100176.38;;;16.74;70.04
65784;BME280;52532;53.358;-1.488;2022-10-04T11:52:04;100173.68;;;15.92;70.50
65784;BME280;52532;53.358;-1.488;2022-10-04T11:55:31;100166.51;;;17.09;67.14
65784;BME280;52532;53.358;-1.488;2022-10-04T11:58:53;100185.20;;;16.39;71.06
65784;BME280;52532;53.358;-1.488;2022-10-04T12:03:26;100180.62;;;18.24;65.73
65784;BME280;52532;53.358;-1.488;2022-10-04T12:06:46;100171.37;;;17.00;67.16
65784;BME280;52532;53.358;-1.488;2022-10-04T12:10:07;100159.41;;;18.06;64.00
65784;BME280;52532;53.358;-1.488;2022-10-04T12:13:26;100155.42;;;18.79;61.73
65784;BME280;52532;53.358;-1.488;2022-10-04T12:18:02;100160.79;;;15.52;71.47
65784;BME280;52532;53.358;-1.488;2022-10-04T12:21:23;100154.35;;;18.19;64.44
65784;BME280;52532;53.358;-1.488;2022-10-04T12:25:34;100176.86;;;18.19;64.03
65784;BME280;52532;53.358;-1.488;2022-10-04T12:28:57;100189.43;;;19.71;59.49
65784;BME280;52532;53.358;-1.488;2022-10-04T12:32:09;100187.83;;;17.19;64.86
65784;BME280;52532;53.358;-1.488;2022-10-04T12:35:22;100196.19;;;18.60;61.39
65784;BME280;52532;53.358;-1.488;2022-10-04T12:39:14;100207.59;;;18.75;61.70
65784;BME280;52532;53.358;-1.488;2022-10-04T12:42:28;100215.01;;;18.33;64.18
65784;BME280;52532;53.358;-1.488;2022-10-04T12:45:48;100206.95;;;16.86;68.65
65784;BME280;52532;53.358;-1.488;2022-10-04T12:49:11;100193.29;;;17.40;67.84
65784;BME280;52532;53.358;-1.488;2022-10-04T12:52:19;100196.77;;;18.74;64.05
65784;BME280;52532;53.358;-1.488;2022-10-04T12:55:40;100188.70;;;18.77;62.08
65784;BME280;52532;53.358;-1.488;2022-10-04T12:58:56;100184.02;;;19.52;60.03
65784;BME280;52532;53.358;-1.488;2022-10-04T13:02:13;100181.13;;;20.05;59.33
65784;BME280;52532;53.358;-1.488;2022-10-04T13:05:28;100174.66;;;18.50;63.63
65784;BME280;52532;53.358;-1.488;2022-10-04T13:08:43;100178.45;;;18.77;62.98
65784;BME280;52532;53.358;-1.488;2022-10-04T13:12:02;100178.78;;;18.60;62.58
65784;BME280;52532;53.358;-1.488;2022-10-04T13:15:23;100175.29;;;19.27;61.07
65784;BME280;52532;53.358;-1.488;2022-10-04T13:18:38;100185.24;;;17.84;64.54
65784;BME280;52532;53.358;-1.488;2022-10-04T13:22:00;100187.17;;;18.76;63.66
65784;BME280;52532;53.358;-1.488;2022-10-04T13:25:17;100188.42;;;19.92;60.92
65784;BME280;52532;53.358;-1.488;2022-10-04T13:28:28;100189.32;;;20.96;57.56
65784;BME280;52532;53.358;-1.488;2022-10-04T13:31:37;100188.40;;;18.47;64.08
65784;BME280;52532;53.358;-1.488;2022-10-04T13:34:46;100186.03;;;19.69;60.86
65784;BME280;52532;53.358;-1.488;2022-10-04T13:38:06;100180.62;;;16.19;68.11
65784;BME280;52532;53.358;-1.488;2022-10-04T13:41:23;100188.27;;;18.92;62.60
65784;BME280;52532;53.358;-1.488;2022-10-04T13:44:40;100176.13;;;19.28;62.17
65784;BME280;52532;53.358;-1.488;2022-10-04T13:48:04;100174.30;;;17.45;70.92
65784;BME280;52532;53.358;-1.488;2022-10-04T13:51:26;100162.18;;;18.39;66.22
65784;BME280;52532;53.358;-1.488;2022-10-04T13:54:37;100154.49;;;18.24;69.63
65784;BME280;52532;53.358;-1.488;2022-10-04T13:59:59;100147.44;;;18.42;69.43
65784;BME280;52532;53.358;-1.488;2022-10-04T14:03:31;100155.61;;;19.38;67.59
65784;BME280;52532;53.358;-1.488;2022-10-04T14:07:31;100164.12;;;18.64;67.40
65784;BME280;52532;53.358;-1.488;2022-10-04T14:10:48;100161.91;;;17.94;70.10
65784;BME280;52532;53.358;-1.488;2022-10-04T14:14:14;100159.33;;;19.08;69.10
65784;BME280;52532;53.358;-1.488;2022-10-04T14:17:39;100161.84;;;18.99;68.50
65784;BME280;52532;53.358;-1.488;2022-10-04T14:21:29;100171.70;;;18.00;71.71
65784;BME280;52532;53.358;-1.488;2022-10-04T14:30:35;100163.78;;;16.76;74.50
65784;BME280;52532;53.358;-1.488;2022-10-04T14:33:57;100154.41;;;19.12;65.93
65784;BME280;52532;53.358;-1.488;2022-10-04T14:42:41;100157.52;;;19.05;67.76
65784;BME280;52532;53.358;-1.488;2022-10-04T14:46:02;100170.57;;;17.61;72.44
65784;BME280;52532;53.358;-1.488;2022-10-04T14:49:20;100170.43;;;19.11;67.23
65784;BME280;52532;53.358;-1.488;2022-10-04T14:52:37;100169.69;;;18.95;69.04
65784;BME280;52532;53.358;-1.488;2022-10-04T14:56:02;100152.25;;;18.25;71.68
65784;BME280;52532;53.358;-1.488;2022-10-04T14:59:24;100149.50;;;18.99;71.85
65784;BME280;52532;53.358;-1.488;2022-10-04T15:02:53;100145.04;;;18.31;73.64
65784;BME280;52532;53.358;-1.488;2022-10-04T15:06:09;100140.24;;;17.06;77.61
65784;BME280;52532;53.358;-1.488;2022-10-04T15:10:22;100140.55;;;16.66;79.64
65784;BME280;52532;53.358;-1.488;2022-10-04T15:13:32;100142.02;;;17.77;75.83
65784;BME280;52532;53.358;-1.488;2022-10-04T15:16:42;100147.88;;;17.63;77.25
65784;BME280;52532;53.358;-1.488;2022-10-04T15:20:01;100147.74;;;17.10;75.72
65784;BME280;52532;53.358;-1.488;2022-10-04T15:23:14;100150.12;;;15.93;81.71
65784;BME280;52532;53.358;-1.488;2022-10-04T15:26:49;100161.47;;;18.68;74.02
65784;BME280;52532;53.358;-1.488;2022-10-04T15:30:07;100161.54;;;18.84;72.06
65784;BME280;52532;53.358;-1.488;2022-10-04T15:33:33;100150.44;;;18.82;70.25
65784;BME280;52532;53.358;-1.488;2022-10-04T15:36:46;100145.34;;;17.76;74.06
65784;BME280;52532;53.358;-1.488;2022-10-04T15:40:02;100140.27;;;17.23;74.56
65784;BME280;52532;53.358;-1.488;2022-10-04T15:43:21;100121.67;;;19.03;70.36
65784;BME280;52532;53.358;-1.488;2022-10-04T15:46:36;100135.79;;;17.99;72.77
65784;BME280;52532;53.358;-1.488;2022-10-04T15:50:06;100129.68;;;18.10;72.33
65784;BME280;52532;53.358;-1.488;2022-10-04T15:53:33;100127.03;;;18.13;72.75
65784;BME280;52532;53.358;-1.488;2022-10-04T15:56:47;100128.72;;;18.70;71.33
65784;BME280;52532;53.358;-1.488;2022-10-04T15:59:54;100112.98;;;18.71;71.45
65784;BME280;52532;53.358;-1.488;2022-10-04T16:03:14;100099.88;;;18.83;71.02
65784;BME280;52532;53.358;-1.488;2022-10-04T16:06:27;100100.32;;;19.48;69.86
65784;BME280;52532;53.358;-1.488;2022-10-04T16:09:36;100084.54;;;18.69;71.08
65784;BME280;52532;53.358;-1.488;2022-10-04T16:13:46;100065.99;;;17.89;74.04
65784;BME280;52532;53.358;-1.488;2022-10-04T16:17:25;100082.34;;;17.97;74.44
65784;BME280;52532;53.358;-1.488;2022-10-04T16:21:14;100099.59;;;18.11;71.77
65784;BME280;52532;53.358;-1.488;2022-10-04T16:24:57;100105.92;;;18.24;71.26
65784;BME280;52532;53.358;-1.488;2022-10-04T16:28:06;100095.57;;;19.86;67.67
65784;BME280;52532;53.358;-1.488;2022-10-04T16:31:25;100097.25;;;18.79;71.47
65784;BME280;52532;53.358;-1.488;2022-10-04T16:34:36;100076.01;;;18.13;71.53
65784;BME280;52532;53.358;-1.488;2022-10-04T16:37:54;100069.54;;;17.86;71.61
65784;BME280;52532;53.358;-1.488;2022-10-04T16:41:06;100061.77;;;17.27;74.86
65784;BME280;52532;53.358;-1.488;2022-10-04T16:44:29;100075.53;;;16.18;78.68
65784;BME280;52532;53.358;-1.488;2022-10-04T16:47:35;100068.89;;;17.40;73.71
65784;BME280;52532;53.358;-1.488;2022-10-04T16:50:55;100071.19;;;16.76;75.86
65784;BME280;52532;53.358;-1.488;2022-10-04T16:54:13;100072.88;;;19.06;71.44
65784;BME280;52532;53.358;-1.488;2022-10-04T16:57:28;100072.20;;;17.83;73.04
65784;BME280;52532;53.358;-1.488;2022-10-04T17:00:33;100069.79;;;18.71;70.46
65784;BME280;52532;53.358;-1.488;2022-10-04T17:03:46;100074.07;;;18.61;69.90
65784;BME280;52532;53.358;-1.488;2022-10-04T17:06:55;100082.03;;;18.64;70.22
65784;BME280;52532;53.358;-1.488;2022-10-04T17:10:15;100091.63;;;17.91;71.30
65784;BME280;52532;53.358;-1.488;2022-10-04T17:13:25;100081.09;;;19.35;68.54
65784;BME280;52532;53.358;-1.488;2022-10-04T17:16:36;100088.29;;;17.93;71.45
65784;BME280;52532;53.358;-1.488;2022-10-04T17:19:43;100085.13;;;18.46;71.85
65784;BME280;52532;53.358;-1.488;2022-10-04T17:22:58;100081.42;;;17.78;72.66
65784;BME280;52532;53.358;-1.488;2022-10-04T17:26:14;100093.12;;;18.34;71.63
65784;BME280;52532;53.358;-1.488;2022-10-04T17:29:34;100089.05;;;17.86;73.09
65784;BME280;52532;53.358;-1.488;2022-10-04T17:32:49;100099.41;;;17.76;72.99
65784;BME280;52532;53.358;-1.488;2022-10-04T17:36:02;100095.61;;;18.17;75.20
65784;BME280;52532;53.358;-1.488;2022-10-04T17:39:47;100096.40;;;17.79;76.48
65784;BME280;52532;53.358;-1.488;2022-10-04T17:42:57;100096.62;;;17.12;79.20